Terminal Aerodrome Forecast
Issued by NWS Austin/San Antonio, TX

Home | Current Version | Previous Version | Text Only | Print | Product List | Glossary On
Versions: 1 2 3 4 5 6 7 8 9 10 11 12 13 14 15 16 17 18 19 20 21 22 23
000
FTUS44 KEWX 120200 AAA
TAFDRT
TAF AMD
KDRT 120209Z 1202/1224 11008KT P6SM SCT120 BKN250
     FM121200 12008KT P6SM BKN020
     FM121700 14015KT P6SM SCT060=

USA.gov is the U.S. government's official web portal to all federal, state and local government web resources and services.